sensor_id;sensor_type;location;lat;lon;timestamp;P1;durP1;ratioP1;P2;durP2;ratioP2
51602;SDS011;37954;51.980;5.850;2022-10-24T00:01:22;4.28;;;2.22;;
51602;SDS011;37954;51.980;5.850;2022-10-24T00:05:34;2.45;;;2.10;;
51602;SDS011;37954;51.980;5.850;2022-10-24T00:09:45;4.60;;;2.35;;
51602;SDS011;37954;51.980;5.850;2022-10-24T00:13:57;5.05;;;2.65;;
51602;SDS011;37954;51.980;5.850;2022-10-24T00:18:09;5.78;;;2.55;;
51602;SDS011;37954;51.980;5.850;2022-10-24T00:22:21;3.22;;;2.65;;
51602;SDS011;37954;51.980;5.850;2022-10-24T00:26:33;3.67;;;2.22;;
51602;SDS011;37954;51.980;5.850;2022-10-24T00:30:49;3.92;;;2.35;;
51602;SDS011;37954;51.980;5.850;2022-10-24T00:35:01;3.75;;;2.42;;
51602;SDS011;37954;51.980;5.850;2022-10-24T00:39:13;3.85;;;2.50;;
51602;SDS011;37954;51.980;5.850;2022-10-24T00:43:25;3.45;;;2.25;;
51602;SDS011;37954;51.980;5.850;2022-10-24T00:47:37;3.25;;;2.05;;
51602;SDS011;37954;51.980;5.850;2022-10-24T00:51:49;2.90;;;2.10;;
51602;SDS011;37954;51.980;5.850;2022-10-24T00:56:04;2.97;;;2.38;;
51602;SDS011;37954;51.980;5.850;2022-10-24T01:00:19;2.78;;;1.90;;
51602;SDS011;37954;51.980;5.850;2022-10-24T01:04:33;4.25;;;2.00;;
51602;SDS011;37954;51.980;5.850;2022-10-24T01:08:46;2.72;;;2.00;;
51602;SDS011;37954;51.980;5.850;2022-10-24T01:13:14;2.25;;;1.90;;
51602;SDS011;37954;51.980;5.850;2022-10-24T01:22:14;3.70;;;1.95;;
51602;SDS011;37954;51.980;5.850;2022-10-24T01:26:39;2.78;;;1.88;;
51602;SDS011;37954;51.980;5.850;2022-10-24T01:31:18;2.70;;;1.98;;
51602;SDS011;37954;51.980;5.850;2022-10-24T01:40:09;5.72;;;2.13;;
51602;SDS011;37954;51.980;5.850;2022-10-24T01:44:29;4.28;;;1.83;;
51602;SDS011;37954;51.980;5.850;2022-10-24T01:48:46;5.10;;;1.85;;
51602;SDS011;37954;51.980;5.850;2022-10-24T01:53:04;3.38;;;2.15;;
51602;SDS011;37954;51.980;5.850;2022-10-24T01:57:18;4.88;;;2.47;;
51602;SDS011;37954;51.980;5.850;2022-10-24T02:01:29;3.38;;;2.10;;
51602;SDS011;37954;51.980;5.850;2022-10-24T02:05:43;2.13;;;1.85;;
51602;SDS011;37954;51.980;5.850;2022-10-24T02:10:02;3.20;;;2.25;;
51602;SDS011;37954;51.980;5.850;2022-10-24T02:14:19;5.38;;;2.40;;
51602;SDS011;37954;51.980;5.850;2022-10-24T02:18:35;3.45;;;1.90;;
51602;SDS011;37954;51.980;5.850;2022-10-24T02:23:00;1.63;;;1.52;;
51602;SDS011;37954;51.980;5.850;2022-10-24T02:27:22;3.15;;;1.92;;
51602;SDS011;37954;51.980;5.850;2022-10-24T02:31:40;7.25;;;2.10;;
51602;SDS011;37954;51.980;5.850;2022-10-24T02:35:57;2.88;;;1.70;;
51602;SDS011;37954;51.980;5.850;2022-10-24T02:40:10;3.70;;;1.65;;
51602;SDS011;37954;51.980;5.850;2022-10-24T02:44:25;2.35;;;1.60;;
51602;SDS011;37954;51.980;5.850;2022-10-24T02:48:39;9.10;;;2.00;;
51602;SDS011;37954;51.980;5.850;2022-10-24T02:52:55;3.05;;;1.50;;
51602;SDS011;37954;51.980;5.850;2022-10-24T02:57:07;2.38;;;1.50;;
51602;SDS011;37954;51.980;5.850;2022-10-24T03:01:18;3.75;;;1.80;;
51602;SDS011;37954;51.980;5.850;2022-10-24T03:05:30;3.90;;;1.63;;
51602;SDS011;37954;51.980;5.850;2022-10-24T03:09:41;1.95;;;1.50;;
51602;SDS011;37954;51.980;5.850;2022-10-24T03:13:53;3.80;;;1.48;;
51602;SDS011;37954;51.980;5.850;2022-10-24T03:18:04;3.05;;;1.48;;
51602;SDS011;37954;51.980;5.850;2022-10-24T03:22:16;2.75;;;1.75;;
51602;SDS011;37954;51.980;5.850;2022-10-24T03:26:27;2.67;;;1.63;;
51602;SDS011;37954;51.980;5.850;2022-10-24T03:30:39;5.20;;;1.88;;
51602;SDS011;37954;51.980;5.850;2022-10-24T03:34:50;3.35;;;1.52;;
51602;SDS011;37954;51.980;5.850;2022-10-24T03:39:02;1.70;;;1.48;;
51602;SDS011;37954;51.980;5.850;2022-10-24T03:43:14;2.17;;;1.40;;
51602;SDS011;37954;51.980;5.850;2022-10-24T03:47:26;2.33;;;1.60;;
51602;SDS011;37954;51.980;5.850;2022-10-24T03:51:37;2.17;;;1.40;;
51602;SDS011;37954;51.980;5.850;2022-10-24T03:55:49;2.25;;;1.58;;
51602;SDS011;37954;51.980;5.850;2022-10-24T04:00:01;2.78;;;1.30;;
51602;SDS011;37954;51.980;5.850;2022-10-24T04:04:16;2.15;;;1.30;;
51602;SDS011;37954;51.980;5.850;2022-10-24T04:08:28;3.72;;;1.35;;
51602;SDS011;37954;51.980;5.850;2022-10-24T04:12:39;2.60;;;1.40;;
51602;SDS011;37954;51.980;5.850;2022-10-24T04:16:51;2.17;;;1.55;;
51602;SDS011;37954;51.980;5.850;2022-10-24T04:21:03;1.33;;;1.00;;
51602;SDS011;37954;51.980;5.850;2022-10-24T04:25:15;3.45;;;1.60;;
51602;SDS011;37954;51.980;5.850;2022-10-24T04:29:27;5.75;;;1.55;;
51602;SDS011;37954;51.980;5.850;2022-10-24T04:33:39;1.85;;;1.10;;
51602;SDS011;37954;51.980;5.850;2022-10-24T04:37:51;4.72;;;1.63;;
51602;SDS011;37954;51.980;5.850;2022-10-24T04:42:03;2.42;;;1.40;;
51602;SDS011;37954;51.980;5.850;2022-10-24T04:46:14;1.83;;;1.27;;
51602;SDS011;37954;51.980;5.850;2022-10-24T04:50:26;1.88;;;1.30;;
51602;SDS011;37954;51.980;5.850;2022-10-24T04:54:37;3.53;;;1.40;;
51602;SDS011;37954;51.980;5.850;2022-10-24T04:58:49;2.63;;;1.40;;
51602;SDS011;37954;51.980;5.850;2022-10-24T05:03:01;2.58;;;1.58;;
51602;SDS011;37954;51.980;5.850;2022-10-24T05:07:12;3.10;;;1.52;;
51602;SDS011;37954;51.980;5.850;2022-10-24T05:11:24;2.50;;;1.50;;
51602;SDS011;37954;51.980;5.850;2022-10-24T05:15:36;2.55;;;1.42;;
51602;SDS011;37954;51.980;5.850;2022-10-24T05:19:47;3.88;;;1.70;;
51602;SDS011;37954;51.980;5.850;2022-10-24T05:23:59;6.78;;;1.88;;
51602;SDS011;37954;51.980;5.850;2022-10-24T05:28:11;2.35;;;1.73;;
51602;SDS011;37954;51.980;5.850;2022-10-24T05:32:22;3.17;;;1.58;;
51602;SDS011;37954;51.980;5.850;2022-10-24T05:36:34;7.00;;;1.30;;
51602;SDS011;37954;51.980;5.850;2022-10-24T05:40:46;2.00;;;1.17;;
51602;SDS011;37954;51.980;5.850;2022-10-24T05:44:59;1.42;;;1.00;;
51602;SDS011;37954;51.980;5.850;2022-10-24T05:49:11;7.15;;;1.20;;
51602;SDS011;37954;51.980;5.850;2022-10-24T05:53:25;2.75;;;1.55;;
51602;SDS011;37954;51.980;5.850;2022-10-24T05:57:37;2.30;;;1.42;;
51602;SDS011;37954;51.980;5.850;2022-10-24T06:01:48;2.80;;;1.55;;
51602;SDS011;37954;51.980;5.850;2022-10-24T06:06:04;2.95;;;1.60;;
51602;SDS011;37954;51.980;5.850;2022-10-24T06:10:18;1.80;;;1.33;;
51602;SDS011;37954;51.980;5.850;2022-10-24T06:14:30;3.17;;;1.25;;
51602;SDS011;37954;51.980;5.850;2022-10-24T06:18:42;2.13;;;1.38;;
51602;SDS011;37954;51.980;5.850;2022-10-24T06:22:54;5.25;;;1.45;;
51602;SDS011;37954;51.980;5.850;2022-10-24T06:27:05;3.45;;;1.55;;
51602;SDS011;37954;51.980;5.850;2022-10-24T06:31:17;4.32;;;1.88;;
51602;SDS011;37954;51.980;5.850;2022-10-24T06:35:30;1.75;;;1.38;;
51602;SDS011;37954;51.980;5.850;2022-10-24T06:39:42;1.85;;;1.17;;
51602;SDS011;37954;51.980;5.850;2022-10-24T06:43:54;2.15;;;1.25;;
51602;SDS011;37954;51.980;5.850;2022-10-24T06:48:06;3.88;;;1.55;;
51602;SDS011;37954;51.980;5.850;2022-10-24T06:52:18;2.55;;;1.35;;
51602;SDS011;37954;51.980;5.850;2022-10-24T06:56:29;2.20;;;1.42;;
51602;SDS011;37954;51.980;5.850;2022-10-24T07:00:41;8.75;;;1.50;;
51602;SDS011;37954;51.980;5.850;2022-10-24T07:04:52;3.88;;;1.60;;
51602;SDS011;37954;51.980;5.850;2022-10-24T07:09:04;3.22;;;1.52;;
51602;SDS011;37954;51.980;5.850;2022-10-24T07:13:17;2.83;;;1.60;;
51602;SDS011;37954;51.980;5.850;2022-10-24T07:17:29;3.50;;;1.50;;
51602;SDS011;37954;51.980;5.850;2022-10-24T07:21:40;2.75;;;1.50;;
51602;SDS011;37954;51.980;5.850;2022-10-24T07:25:52;2.35;;;1.40;;
51602;SDS011;37954;51.980;5.850;2022-10-24T07:30:04;7.60;;;1.58;;
51602;SDS011;37954;51.980;5.850;2022-10-24T07:34:17;3.90;;;1.85;;
51602;SDS011;37954;51.980;5.850;2022-10-24T07:38:28;2.33;;;1.42;;
51602;SDS011;37954;51.980;5.850;2022-10-24T07:42:40;2.22;;;1.70;;
51602;SDS011;37954;51.980;5.850;2022-10-24T07:46:51;2.17;;;1.58;;
51602;SDS011;37954;51.980;5.850;2022-10-24T07:51:06;4.45;;;1.92;;
51602;SDS011;37954;51.980;5.850;2022-10-24T07:55:19;2.63;;;1.60;;
51602;SDS011;37954;51.980;5.850;2022-10-24T07:59:30;3.20;;;1.60;;
51602;SDS011;37954;51.980;5.850;2022-10-24T08:03:53;2.80;;;1.70;;
51602;SDS011;37954;51.980;5.850;2022-10-24T08:08:05;3.10;;;1.45;;
51602;SDS011;37954;51.980;5.850;2022-10-24T08:12:36;2.20;;;1.48;;
51602;SDS011;37954;51.980;5.850;2022-10-24T08:16:48;3.25;;;1.80;;
51602;SDS011;37954;51.980;5.850;2022-10-24T08:21:00;2.22;;;1.60;;
51602;SDS011;37954;51.980;5.850;2022-10-24T08:25:15;2.90;;;1.42;;
51602;SDS011;37954;51.980;5.850;2022-10-24T08:29:26;4.97;;;1.77;;
51602;SDS011;37954;51.980;5.850;2022-10-24T08:33:38;3.42;;;1.77;;
51602;SDS011;37954;51.980;5.850;2022-10-24T08:37:50;6.07;;;2.13;;
51602;SDS011;37954;51.980;5.850;2022-10-24T08:42:03;4.05;;;1.45;;
51602;SDS011;37954;51.980;5.850;2022-10-24T08:50:48;3.88;;;1.58;;
51602;SDS011;37954;51.980;5.850;2022-10-24T08:55:05;3.13;;;1.67;;
51602;SDS011;37954;51.980;5.850;2022-10-24T08:59:52;2.95;;;1.52;;
51602;SDS011;37954;51.980;5.850;2022-10-24T09:04:08;4.82;;;1.52;;
51602;SDS011;37954;51.980;5.850;2022-10-24T09:08:31;3.15;;;1.63;;
51602;SDS011;37954;51.980;5.850;2022-10-24T09:12:49;3.47;;;1.40;;
51602;SDS011;37954;51.980;5.850;2022-10-24T09:17:20;1.50;;;1.40;;
51602;SDS011;37954;51.980;5.850;2022-10-24T09:21:32;2.03;;;1.38;;
51602;SDS011;37954;51.980;5.850;2022-10-24T09:25:51;1.92;;;1.40;;
51602;SDS011;37954;51.980;5.850;2022-10-24T09:30:05;2.05;;;1.45;;
51602;SDS011;37954;51.980;5.850;2022-10-24T09:34:21;2.88;;;1.60;;
51602;SDS011;37954;51.980;5.850;2022-10-24T09:47:03;6.63;;;1.90;;
51602;SDS011;37954;51.980;5.850;2022-10-24T09:51:24;5.00;;;1.48;;
51602;SDS011;37954;51.980;5.850;2022-10-24T09:55:43;1.88;;;1.30;;
51602;SDS011;37954;51.980;5.850;2022-10-24T09:59:57;1.70;;;1.27;;
51602;SDS011;37954;51.980;5.850;2022-10-24T10:04:15;2.67;;;1.63;;
51602;SDS011;37954;51.980;5.850;2022-10-24T10:08:29;1.35;;;0.88;;
51602;SDS011;37954;51.980;5.850;2022-10-24T10:12:43;2.28;;;1.60;;
51602;SDS011;37954;51.980;5.850;2022-10-24T10:17:04;3.20;;;1.30;;
51602;SDS011;37954;51.980;5.850;2022-10-24T10:21:17;3.10;;;1.52;;
51602;SDS011;37954;51.980;5.850;2022-10-24T10:25:31;6.78;;;1.38;;
51602;SDS011;37954;51.980;5.850;2022-10-24T10:29:42;1.60;;;1.35;;
51602;SDS011;37954;51.980;5.850;2022-10-24T10:33:57;2.75;;;1.55;;
51602;SDS011;37954;51.980;5.850;2022-10-24T10:47:41;2.03;;;1.02;;
51602;SDS011;37954;51.980;5.850;2022-10-24T11:01:08;1.73;;;1.27;;
51602;SDS011;37954;51.980;5.850;2022-10-24T11:05:42;2.25;;;1.00;;
51602;SDS011;37954;51.980;5.850;2022-10-24T11:10:18;2.28;;;1.40;;
51602;SDS011;37954;51.980;5.850;2022-10-24T11:14:44;6.43;;;1.48;;
51602;SDS011;37954;51.980;5.850;2022-10-24T11:19:01;1.92;;;1.20;;
51602;SDS011;37954;51.980;5.850;2022-10-24T11:23:21;1.80;;;1.20;;
51602;SDS011;37954;51.980;5.850;2022-10-24T11:28:37;2.88;;;1.20;;
51602;SDS011;37954;51.980;5.850;2022-10-24T11:32:55;1.52;;;1.20;;
51602;SDS011;37954;51.980;5.850;2022-10-24T11:37:16;2.47;;;1.17;;
51602;SDS011;37954;51.980;5.850;2022-10-24T11:41:38;2.80;;;1.60;;
51602;SDS011;37954;51.980;5.850;2022-10-24T11:45:54;1.80;;;1.20;;
51602;SDS011;37954;51.980;5.850;2022-10-24T11:50:11;2.55;;;1.10;;
51602;SDS011;37954;51.980;5.850;2022-10-24T11:54:55;5.45;;;0.88;;
51602;SDS011;37954;51.980;5.850;2022-10-24T11:59:18;1.70;;;1.13;;
51602;SDS011;37954;51.980;5.850;2022-10-24T12:12:37;1.10;;;1.00;;
51602;SDS011;37954;51.980;5.850;2022-10-24T12:21:56;1.42;;;1.10;;
51602;SDS011;37954;51.980;5.850;2022-10-24T12:26:18;3.00;;;1.15;;
51602;SDS011;37954;51.980;5.850;2022-10-24T12:30:35;2.10;;;1.38;;
51602;SDS011;37954;51.980;5.850;2022-10-24T12:34:59;3.13;;;1.10;;
51602;SDS011;37954;51.980;5.850;2022-10-24T12:53:17;1.15;;;1.02;;
51602;SDS011;37954;51.980;5.850;2022-10-24T12:57:43;1.13;;;1.00;;
51602;SDS011;37954;51.980;5.850;2022-10-24T13:06:30;1.80;;;1.27;;
51602;SDS011;37954;51.980;5.850;2022-10-24T13:19:34;2.08;;;1.23;;
51602;SDS011;37954;51.980;5.850;2022-10-24T13:23:47;1.50;;;1.27;;
51602;SDS011;37954;51.980;5.850;2022-10-24T13:32:35;3.70;;;1.80;;
51602;SDS011;37954;51.980;5.850;2022-10-24T13:36:48;1.63;;;1.20;;
51602;SDS011;37954;51.980;5.850;2022-10-24T13:41:10;2.60;;;1.40;;
51602;SDS011;37954;51.980;5.850;2022-10-24T13:45:44;2.35;;;1.50;;
51602;SDS011;37954;51.980;5.850;2022-10-24T13:50:13;2.20;;;1.73;;
51602;SDS011;37954;51.980;5.850;2022-10-24T13:54:30;4.38;;;1.60;;
51602;SDS011;37954;51.980;5.850;2022-10-24T13:58:44;1.95;;;1.45;;
51602;SDS011;37954;51.980;5.850;2022-10-24T14:02:55;4.35;;;1.10;;
51602;SDS011;37954;51.980;5.850;2022-10-24T14:07:12;2.05;;;1.27;;
51602;SDS011;37954;51.980;5.850;2022-10-24T14:11:33;2.20;;;1.30;;
51602;SDS011;37954;51.980;5.850;2022-10-24T14:15:55;6.38;;;1.58;;
51602;SDS011;37954;51.980;5.850;2022-10-24T14:24:23;2.63;;;1.50;;
51602;SDS011;37954;51.980;5.850;2022-10-24T14:28:53;1.30;;;1.13;;
51602;SDS011;37954;51.980;5.850;2022-10-24T14:37:26;5.72;;;1.40;;
51602;SDS011;37954;51.980;5.850;2022-10-24T14:41:38;3.47;;;1.52;;
51602;SDS011;37954;51.980;5.850;2022-10-24T14:59:24;2.55;;;1.40;;
51602;SDS011;37954;51.980;5.850;2022-10-24T15:03:49;2.42;;;1.48;;
51602;SDS011;37954;51.980;5.850;2022-10-24T15:12:36;4.18;;;1.30;;
51602;SDS011;37954;51.980;5.850;2022-10-24T15:16:49;7.03;;;2.70;;
51602;SDS011;37954;51.980;5.850;2022-10-24T15:21:02;3.55;;;2.10;;
51602;SDS011;37954;51.980;5.850;2022-10-24T15:25:25;7.68;;;3.00;;
51602;SDS011;37954;51.980;5.850;2022-10-24T15:29:40;2.33;;;1.45;;
51602;SDS011;37954;51.980;5.850;2022-10-24T15:33:52;2.33;;;1.45;;
51602;SDS011;37954;51.980;5.850;2022-10-24T15:38:12;3.33;;;1.77;;
51602;SDS011;37954;51.980;5.850;2022-10-24T15:42:25;5.03;;;2.13;;
51602;SDS011;37954;51.980;5.850;2022-10-24T15:46:37;3.77;;;2.40;;
51602;SDS011;37954;51.980;5.850;2022-10-24T15:50:49;5.45;;;2.72;;
51602;SDS011;37954;51.980;5.850;2022-10-24T15:55:00;5.93;;;2.85;;
51602;SDS011;37954;51.980;5.850;2022-10-24T15:59:12;5.63;;;2.70;;
51602;SDS011;37954;51.980;5.850;2022-10-24T16:03:24;4.35;;;1.95;;
51602;SDS011;37954;51.980;5.850;2022-10-24T16:07:35;2.90;;;1.67;;
51602;SDS011;37954;51.980;5.850;2022-10-24T16:11:47;4.88;;;2.80;;
51602;SDS011;37954;51.980;5.850;2022-10-24T16:15:59;8.00;;;4.88;;
51602;SDS011;37954;51.980;5.850;2022-10-24T16:20:10;4.68;;;3.35;;
51602;SDS011;37954;51.980;5.850;2022-10-24T16:24:23;6.50;;;3.28;;
51602;SDS011;37954;51.980;5.850;2022-10-24T16:28:36;5.20;;;4.05;;
51602;SDS011;37954;51.980;5.850;2022-10-24T16:32:48;3.03;;;2.05;;
51602;SDS011;37954;51.980;5.850;2022-10-24T16:37:00;6.43;;;2.10;;
51602;SDS011;37954;51.980;5.850;2022-10-24T16:41:15;3.70;;;2.45;;
51602;SDS011;37954;51.980;5.850;2022-10-24T16:45:31;2.45;;;1.90;;
51602;SDS011;37954;51.980;5.850;2022-10-24T16:49:43;2.80;;;2.00;;
51602;SDS011;37954;51.980;5.850;2022-10-24T16:53:58;2.70;;;1.90;;
51602;SDS011;37954;51.980;5.850;2022-10-24T16:58:10;3.40;;;2.90;;
51602;SDS011;37954;51.980;5.850;2022-10-24T17:02:22;3.53;;;2.20;;
51602;SDS011;37954;51.980;5.850;2022-10-24T17:06:34;4.35;;;2.78;;
51602;SDS011;37954;51.980;5.850;2022-10-24T17:10:46;6.20;;;3.53;;
51602;SDS011;37954;51.980;5.850;2022-10-24T17:14:57;4.50;;;3.10;;
51602;SDS011;37954;51.980;5.850;2022-10-24T17:19:09;3.47;;;3.03;;
51602;SDS011;37954;51.980;5.850;2022-10-24T17:23:26;6.93;;;2.80;;
51602;SDS011;37954;51.980;5.850;2022-10-24T17:27:38;6.03;;;2.40;;
51602;SDS011;37954;51.980;5.850;2022-10-24T17:31:50;4.25;;;2.53;;
51602;SDS011;37954;51.980;5.850;2022-10-24T17:36:02;4.15;;;2.83;;
51602;SDS011;37954;51.980;5.850;2022-10-24T17:40:17;6.28;;;4.97;;
51602;SDS011;37954;51.980;5.850;2022-10-24T17:44:30;7.38;;;5.40;;
51602;SDS011;37954;51.980;5.850;2022-10-24T17:48:42;5.00;;;4.10;;
51602;SDS011;37954;51.980;5.850;2022-10-24T17:52:53;6.25;;;4.68;;
51602;SDS011;37954;51.980;5.850;2022-10-24T17:57:05;7.13;;;4.60;;
51602;SDS011;37954;51.980;5.850;2022-10-24T18:01:17;9.27;;;4.50;;
51602;SDS011;37954;51.980;5.850;2022-10-24T18:05:30;7.22;;;4.70;;
51602;SDS011;37954;51.980;5.850;2022-10-24T18:09:47;5.68;;;4.30;;
51602;SDS011;37954;51.980;5.850;2022-10-24T18:13:59;10.05;;;3.67;;
51602;SDS011;37954;51.980;5.850;2022-10-24T18:18:10;7.47;;;3.80;;
51602;SDS011;37954;51.980;5.850;2022-10-24T18:22:22;7.10;;;3.92;;
51602;SDS011;37954;51.980;5.850;2022-10-24T18:26:34;5.35;;;3.97;;
51602;SDS011;37954;51.980;5.850;2022-10-24T18:30:51;3.95;;;3.55;;
51602;SDS011;37954;51.980;5.850;2022-10-24T18:35:05;6.75;;;3.78;;
51602;SDS011;37954;51.980;5.850;2022-10-24T18:39:17;5.40;;;4.00;;
51602;SDS011;37954;51.980;5.850;2022-10-24T18:43:29;6.40;;;5.05;;
51602;SDS011;37954;51.980;5.850;2022-10-24T18:47:41;10.70;;;7.93;;
51602;SDS011;37954;51.980;5.850;2022-10-24T18:52:00;3.65;;;3.35;;
51602;SDS011;37954;51.980;5.850;2022-10-24T18:56:21;6.88;;;3.97;;
51602;SDS011;37954;51.980;5.850;2022-10-24T19:00:33;7.55;;;5.20;;
51602;SDS011;37954;51.980;5.850;2022-10-24T19:04:50;8.35;;;2.83;;
51602;SDS011;37954;51.980;5.850;2022-10-24T19:09:25;7.28;;;2.95;;
51602;SDS011;37954;51.980;5.850;2022-10-24T19:13:37;5.75;;;4.05;;
51602;SDS011;37954;51.980;5.850;2022-10-24T19:17:49;4.60;;;3.53;;
51602;SDS011;37954;51.980;5.850;2022-10-24T19:22:02;3.20;;;2.28;;
51602;SDS011;37954;51.980;5.850;2022-10-24T19:26:13;3.40;;;2.08;;
51602;SDS011;37954;51.980;5.850;2022-10-24T19:30:25;3.72;;;2.30;;
51602;SDS011;37954;51.980;5.850;2022-10-24T19:34:36;5.28;;;2.17;;
51602;SDS011;37954;51.980;5.850;2022-10-24T19:38:52;3.80;;;2.10;;
51602;SDS011;37954;51.980;5.850;2022-10-24T19:43:05;3.00;;;2.25;;
51602;SDS011;37954;51.980;5.850;2022-10-24T19:47:17;3.47;;;2.72;;
51602;SDS011;37954;51.980;5.850;2022-10-24T19:51:28;2.65;;;2.15;;
51602;SDS011;37954;51.980;5.850;2022-10-24T19:55:43;5.40;;;2.30;;
51602;SDS011;37954;51.980;5.850;2022-10-24T19:59:54;3.25;;;2.20;;
51602;SDS011;37954;51.980;5.850;2022-10-24T20:04:06;7.55;;;5.05;;
51602;SDS011;37954;51.980;5.850;2022-10-24T20:08:18;19.92;;;14.43;;
51602;SDS011;37954;51.980;5.850;2022-10-24T20:12:29;12.35;;;6.45;;
51602;SDS011;37954;51.980;5.850;2022-10-24T20:16:41;8.60;;;4.60;;
51602;SDS011;37954;51.980;5.850;2022-10-24T20:20:52;7.45;;;2.72;;
51602;SDS011;37954;51.980;5.850;2022-10-24T20:25:05;5.57;;;3.72;;
51602;SDS011;37954;51.980;5.850;2022-10-24T20:29:17;5.05;;;3.25;;
51602;SDS011;37954;51.980;5.850;2022-10-24T20:33:28;5.82;;;4.00;;
51602;SDS011;37954;51.980;5.850;2022-10-24T20:37:40;5.85;;;3.60;;
51602;SDS011;37954;51.980;5.850;2022-10-24T20:41:51;5.18;;;3.53;;
51602;SDS011;37954;51.980;5.850;2022-10-24T20:46:05;4.78;;;2.90;;
51602;SDS011;37954;51.980;5.850;2022-10-24T20:50:17;6.30;;;2.97;;
51602;SDS011;37954;51.980;5.850;2022-10-24T20:54:28;3.85;;;2.47;;
51602;SDS011;37954;51.980;5.850;2022-10-24T20:58:40;5.10;;;2.90;;
51602;SDS011;37954;51.980;5.850;2022-10-24T21:02:53;3.25;;;2.33;;
51602;SDS011;37954;51.980;5.850;2022-10-24T21:07:04;2.67;;;2.15;;
51602;SDS011;37954;51.980;5.850;2022-10-24T21:11:17;7.05;;;3.13;;
51602;SDS011;37954;51.980;5.850;2022-10-24T21:15:35;4.97;;;2.90;;
51602;SDS011;37954;51.980;5.850;2022-10-24T21:19:46;7.47;;;3.03;;
51602;SDS011;37954;51.980;5.850;2022-10-24T21:23:59;6.63;;;2.28;;
51602;SDS011;37954;51.980;5.850;2022-10-24T21:28:16;4.35;;;2.65;;
51602;SDS011;37954;51.980;5.850;2022-10-24T21:32:28;4.47;;;2.72;;
51602;SDS011;37954;51.980;5.850;2022-10-24T21:36:39;4.45;;;2.65;;
51602;SDS011;37954;51.980;5.850;2022-10-24T21:40:57;9.98;;;4.35;;
51602;SDS011;37954;51.980;5.850;2022-10-24T21:45:10;8.77;;;4.32;;
51602;SDS011;37954;51.980;5.850;2022-10-24T21:49:22;13.32;;;4.97;;
51602;SDS011;37954;51.980;5.850;2022-10-24T21:53:36;6.55;;;3.10;;
51602;SDS011;37954;51.980;5.850;2022-10-24T21:57:49;5.68;;;2.70;;
51602;SDS011;37954;51.980;5.850;2022-10-24T22:02:01;6.57;;;3.90;;
51602;SDS011;37954;51.980;5.850;2022-10-24T22:06:13;6.68;;;3.40;;
51602;SDS011;37954;51.980;5.850;2022-10-24T22:10:26;8.13;;;4.10;;
51602;SDS011;37954;51.980;5.850;2022-10-24T22:14:38;8.75;;;3.80;;
51602;SDS011;37954;51.980;5.850;2022-10-24T22:18:49;7.32;;;4.60;;
51602;SDS011;37954;51.980;5.850;2022-10-24T22:23:02;15.75;;;8.23;;
51602;SDS011;37954;51.980;5.850;2022-10-24T22:27:13;19.75;;;8.70;;
51602;SDS011;37954;51.980;5.850;2022-10-24T22:31:25;17.20;;;7.15;;
51602;SDS011;37954;51.980;5.850;2022-10-24T22:35:39;10.02;;;5.70;;
51602;SDS011;37954;51.980;5.850;2022-10-24T22:39:50;8.18;;;4.78;;
51602;SDS011;37954;51.980;5.850;2022-10-24T22:44:02;12.57;;;5.10;;
51602;SDS011;37954;51.980;5.850;2022-10-24T22:48:15;7.40;;;3.80;;
51602;SDS011;37954;51.980;5.850;2022-10-24T22:52:33;5.25;;;2.65;;
51602;SDS011;37954;51.980;5.850;2022-10-24T22:56:45;8.48;;;3.80;;
51602;SDS011;37954;51.980;5.850;2022-10-24T23:00:58;15.10;;;6.03;;
51602;SDS011;37954;51.980;5.850;2022-10-24T23:09:54;11.00;;;5.80;;
51602;SDS011;37954;51.980;5.850;2022-10-24T23:14:06;6.10;;;4.10;;
51602;SDS011;37954;51.980;5.850;2022-10-24T23:18:18;6.07;;;3.78;;
51602;SDS011;37954;51.980;5.850;2022-10-24T23:22:30;16.00;;;4.85;;
51602;SDS011;37954;51.980;5.850;2022-10-24T23:31:06;4.88;;;3.60;;
51602;SDS011;37954;51.980;5.850;2022-10-24T23:35:18;5.35;;;3.28;;
51602;SDS011;37954;51.980;5.850;2022-10-24T23:39:33;4.68;;;3.25;;
51602;SDS011;37954;51.980;5.850;2022-10-24T23:43:45;5.60;;;2.90;;
51602;SDS011;37954;51.980;5.850;2022-10-24T23:52:31;4.57;;;2.58;;
51602;SDS011;37954;51.980;5.850;2022-10-24T23:56:57;4.28;;;2.30;;
